createdAt,value
2022-12-18T00:03:45.386Z,72.53
2022-12-18T00:08:47.080Z,72.31
2022-12-18T00:13:46.827Z,71.67
2022-12-18T00:18:45.697Z,72.80
2022-12-18T00:23:46.004Z,72.14
2022-12-18T00:28:46.239Z,73.65
2022-12-18T00:33:45.613Z,72.35
2022-12-18T00:38:45.317Z,72.11
2022-12-18T00:43:44.101Z,72.18
2022-12-18T00:48:43.167Z,70.27
2022-12-18T00:53:42.276Z,70.70
2022-12-18T00:58:41.125Z,70.47
2022-12-18T01:03:40.102Z,70.71
2022-12-18T01:08:40.066Z,71.30
2022-12-18T01:13:39.860Z,69.39
2022-12-18T01:18:38.933Z,69.14
2022-12-18T01:23:38.228Z,69.60
2022-12-18T01:28:38.519Z,72.95
2022-12-18T01:33:38.381Z,69.88
2022-12-18T01:38:38.631Z,69.95
2022-12-18T01:43:51.829Z,70.46
2022-12-18T01:48:56.529Z,71.08
2022-12-18T01:53:57.386Z,71.13
2022-12-18T01:59:06.949Z,68.38
2022-12-18T02:04:23.977Z,70.03
2022-12-18T02:09:33.212Z,69.30
2022-12-18T02:14:50.208Z,66.98
2022-12-18T02:20:14.922Z,69.35
2022-12-18T02:25:40.927Z,72.10
2022-12-18T02:30:41.843Z,70.76
2022-12-18T02:35:43.277Z,68.58
2022-12-18T02:40:44.212Z,66.33
2022-12-18T02:45:50.997Z,67.07
2022-12-18T02:51:08.875Z,69.20
2022-12-18T02:56:16.602Z,68.96
2022-12-18T03:01:28.099Z,67.94
2022-12-18T03:06:38.297Z,69.16
2022-12-18T03:11:59.767Z,68.21
2022-12-18T03:17:03.131Z,68.73
2022-12-18T03:22:06.048Z,67.04
2022-12-18T03:27:18.551Z,68.65
2022-12-18T03:32:28.230Z,68.26
2022-12-18T03:37:27.446Z,69.29
2022-12-18T03:42:54.623Z,70.01
2022-12-18T03:48:08.560Z,69.78
2022-12-18T03:53:30.466Z,69.38
2022-12-18T03:58:33.164Z,70.49
2022-12-18T04:03:50.480Z,70.63
2022-12-18T04:08:52.052Z,70.61
2022-12-18T04:13:58.336Z,67.06
2022-12-18T04:18:57.358Z,67.46
2022-12-18T04:23:58.479Z,68.20
2022-12-18T04:28:58.003Z,70.79
2022-12-18T04:33:57.115Z,68.41
2022-12-18T04:38:56.682Z,67.55
2022-12-18T04:43:55.754Z,66.53
2022-12-18T04:48:54.520Z,64.75
2022-12-18T04:53:53.867Z,67.08
2022-12-18T04:58:52.741Z,68.65
2022-12-18T05:03:52.759Z,69.51
2022-12-18T05:08:51.632Z,71.49
2022-12-18T05:13:50.572Z,68.04
2022-12-18T05:18:49.344Z,68.67
2022-12-18T05:23:48.158Z,70.46
2022-12-18T05:28:47.672Z,69.38
2022-12-18T05:33:46.386Z,69.76
2022-12-18T05:38:47.954Z,70.25
2022-12-18T05:43:46.767Z,67.72
2022-12-18T05:48:46.320Z,68.91
2022-12-18T05:53:45.846Z,68.75
2022-12-18T05:58:45.143Z,68.77
2022-12-18T06:03:44.342Z,70.06
2022-12-18T06:08:46.382Z,68.35
2022-12-18T06:13:46.282Z,68.59
2022-12-18T06:18:45.026Z,69.56
2022-12-18T06:23:44.614Z,70.48
2022-12-18T06:28:43.661Z,69.16
2022-12-18T06:33:43.241Z,69.63
2022-12-18T06:38:44.572Z,69.11
2022-12-18T06:43:44.190Z,67.96
2022-12-18T06:48:43.370Z,68.54
2022-12-18T06:53:42.497Z,69.40
2022-12-18T06:58:42.382Z,71.30
2022-12-18T07:03:42.854Z,68.32
2022-12-18T07:08:42.109Z,69.19
2022-12-18T07:13:41.198Z,68.91
2022-12-18T07:18:40.343Z,70.34
2022-12-18T07:23:40.018Z,70.39
2022-12-18T07:28:40.673Z,69.10
2022-12-18T07:33:39.885Z,68.29
2022-12-18T07:38:38.951Z,67.12
2022-12-18T07:43:38.847Z,66.63
2022-12-18T07:48:38.127Z,67.64
2022-12-18T07:53:37.734Z,69.55
2022-12-18T07:58:37.879Z,68.83
2022-12-18T08:03:39.371Z,67.15
2022-12-18T08:08:38.729Z,67.36
2022-12-18T08:13:37.764Z,69.67
2022-12-18T08:18:38.170Z,87.11
2022-12-18T08:23:42.367Z,71.90
2022-12-18T08:28:42.727Z,53.75
2022-12-18T08:33:42.465Z,62.05
2022-12-18T08:38:42.001Z,63.85
2022-12-18T08:43:59.939Z,64.46
2022-12-18T08:48:59.034Z,65.62
2022-12-18T08:53:57.786Z,69.95
2022-12-18T08:58:57.021Z,68.18
2022-12-18T09:03:55.904Z,67.67
2022-12-18T09:08:54.978Z,68.08
2022-12-18T09:13:55.080Z,67.37
2022-12-18T09:19:00.180Z,66.49
2022-12-18T09:23:59.447Z,66.78
2022-12-18T09:28:58.294Z,67.48
2022-12-18T09:33:58.023Z,66.52
2022-12-18T09:38:56.974Z,65.47
2022-12-18T09:44:01.945Z,65.60
2022-12-18T09:49:06.862Z,65.99
2022-12-18T09:54:34.598Z,67.71
2022-12-18T09:59:38.217Z,66.96
2022-12-18T10:04:37.186Z,67.66
2022-12-18T10:10:05.155Z,68.97
2022-12-18T10:15:25.706Z,68.83
2022-12-18T10:20:46.389Z,68.28
2022-12-18T10:26:08.323Z,68.16
2022-12-18T10:31:27.451Z,67.61
2022-12-18T10:36:26.381Z,68.71
2022-12-18T10:41:27.796Z,67.98
2022-12-18T10:46:28.669Z,68.35
2022-12-18T10:51:36.977Z,68.86
2022-12-18T10:56:37.810Z,68.61
2022-12-18T11:01:56.519Z,68.68
2022-12-18T11:06:59.873Z,68.02
2022-12-18T11:12:02.046Z,68.29
2022-12-18T11:22:22.426Z,66.34
2022-12-18T11:27:22.066Z,67.49
2022-12-18T11:32:34.674Z,65.46
2022-12-18T11:37:33.973Z,65.19
2022-12-18T11:42:43.845Z,65.38
2022-12-18T11:47:50.086Z,65.64
2022-12-18T11:52:54.172Z,65.72
2022-12-18T11:58:18.687Z,66.56
2022-12-18T12:03:39.435Z,66.84
2022-12-18T12:08:41.610Z,65.78
2022-12-18T12:14:19.668Z,65.49
2022-12-18T12:19:53.976Z,64.79
2022-12-18T12:25:00.952Z,64.34
2022-12-18T12:30:05.767Z,65.48
2022-12-18T12:35:43.311Z,64.84
2022-12-18T12:40:55.220Z,65.25
2022-12-18T12:46:07.948Z,65.58
2022-12-18T12:51:22.071Z,66.47
2022-12-18T12:56:22.478Z,66.49
2022-12-18T13:01:40.603Z,65.68
2022-12-18T13:07:00.030Z,66.21
2022-12-18T13:12:23.015Z,67.06
2022-12-18T13:17:21.734Z,66.94
2022-12-18T13:22:35.942Z,68.34
2022-12-18T13:27:43.960Z,67.87
2022-12-18T13:32:42.808Z,68.70
2022-12-18T13:37:52.075Z,70.02
2022-12-18T13:43:09.521Z,68.32
2022-12-18T13:48:17.764Z,69.46
2022-12-18T13:53:22.982Z,69.00
2022-12-18T13:58:21.887Z,69.16
2022-12-18T14:03:27.990Z,70.90
2022-12-18T14:08:33.274Z,71.30
2022-12-18T14:13:36.560Z,70.68
2022-12-18T14:18:56.378Z,71.54
2022-12-18T14:24:05.976Z,71.25
2022-12-18T14:29:24.173Z,72.22
2022-12-18T14:34:27.513Z,71.08
2022-12-18T14:39:26.673Z,71.54
2022-12-18T14:44:28.629Z,71.78
2022-12-18T14:49:35.348Z,71.64
2022-12-18T14:54:38.143Z,72.54
2022-12-18T14:59:36.959Z,72.53
2022-12-18T15:04:40.269Z,73.48
2022-12-18T15:09:43.871Z,73.02
2022-12-18T15:14:43.197Z,74.55
2022-12-18T15:19:44.549Z,75.09
2022-12-18T15:24:43.447Z,74.16
2022-12-18T15:29:42.221Z,75.36
2022-12-18T15:34:41.115Z,75.00
2022-12-18T15:39:40.107Z,75.17
2022-12-18T15:44:39.086Z,74.13
2022-12-18T15:49:38.075Z,75.13
2022-12-18T15:54:55.357Z,73.68
2022-12-18T15:59:59.470Z,74.21
2022-12-18T16:04:58.542Z,74.16
2022-12-18T16:09:58.220Z,74.25
2022-12-18T16:14:58.186Z,73.82
2022-12-18T16:19:57.016Z,73.59
2022-12-18T16:24:57.281Z,73.46
2022-12-18T16:29:56.176Z,73.43
2022-12-18T16:35:01.317Z,73.45
2022-12-18T16:40:00.341Z,75.15
2022-12-18T16:44:59.137Z,74.02
2022-12-18T16:49:58.093Z,75.57
2022-12-18T16:54:57.444Z,75.04
2022-12-18T17:00:02.930Z,74.95
2022-12-18T17:05:04.053Z,73.90
2022-12-18T17:10:02.993Z,73.92
2022-12-18T17:15:01.925Z,74.17
2022-12-18T17:20:00.662Z,73.88
2022-12-18T17:24:59.479Z,74.29
2022-12-18T17:29:58.295Z,74.80
2022-12-18T17:34:57.185Z,75.00
2022-12-18T17:39:56.108Z,74.89
2022-12-18T17:44:57.305Z,74.69
2022-12-18T17:49:56.039Z,74.93
2022-12-18T17:54:56.196Z,75.02
2022-12-18T17:59:55.049Z,74.80
2022-12-18T18:04:54.317Z,74.44
2022-12-18T18:09:53.054Z,74.29
2022-12-18T18:14:51.885Z,74.09
2022-12-18T18:19:50.835Z,74.28
2022-12-18T18:24:49.634Z,73.67
2022-12-18T18:29:49.015Z,73.25
2022-12-18T18:34:50.516Z,74.34
2022-12-18T18:39:49.215Z,74.18
2022-12-18T18:44:49.172Z,74.42
2022-12-18T18:49:48.152Z,73.59
2022-12-18T18:55:11.685Z,72.87
2022-12-18T19:00:08.601Z,73.82
2022-12-18T19:05:07.978Z,73.31
2022-12-18T19:10:07.803Z,72.84
2022-12-18T19:15:07.076Z,73.16
2022-12-18T19:20:06.567Z,72.76
2022-12-18T19:25:07.865Z,74.00
2022-12-18T19:30:07.446Z,73.59
2022-12-18T19:35:06.790Z,72.66
2022-12-18T19:40:12.443Z,72.91
2022-12-18T19:45:11.607Z,72.49
2022-12-18T19:50:10.748Z,71.96
2022-12-18T19:55:09.829Z,71.86
2022-12-18T20:00:12.882Z,72.02
2022-12-18T20:05:16.055Z,72.80
2022-12-18T20:10:15.116Z,72.32
2022-12-18T20:15:16.132Z,71.48
2022-12-18T20:20:14.894Z,70.82
2022-12-18T20:25:13.898Z,71.87
2022-12-18T20:30:15.499Z,70.98
2022-12-18T20:35:14.229Z,70.75
2022-12-18T20:40:22.713Z,71.89
2022-12-18T20:45:21.531Z,72.09
2022-12-18T20:50:20.327Z,72.38
2022-12-18T20:55:19.498Z,71.77
2022-12-18T21:00:20.075Z,71.13
2022-12-18T21:05:20.258Z,71.40
2022-12-18T21:10:19.059Z,70.30
2022-12-18T21:15:18.110Z,69.85
2022-12-18T21:20:18.068Z,68.86
2022-12-18T21:25:17.994Z,69.75
2022-12-18T21:30:17.045Z,70.17
2022-12-18T21:35:16.009Z,70.54
2022-12-18T21:40:16.176Z,70.28
2022-12-18T21:45:14.929Z,69.90
2022-12-18T21:50:13.975Z,70.76
2022-12-18T21:55:13.814Z,70.33
2022-12-18T22:00:18.315Z,71.17
2022-12-18T22:05:18.407Z,70.48
2022-12-18T22:10:17.253Z,71.49
2022-12-18T22:15:21.423Z,71.30
2022-12-18T22:20:20.790Z,71.80
2022-12-18T22:25:19.535Z,71.04
2022-12-18T22:30:18.352Z,71.10
2022-12-18T22:35:17.271Z,70.72
2022-12-18T22:40:25.441Z,71.29
2022-12-18T22:45:25.836Z,71.51
2022-12-18T22:50:24.813Z,71.57
2022-12-18T22:55:23.645Z,70.32
2022-12-18T23:00:24.525Z,70.17
2022-12-18T23:05:23.438Z,70.52
2022-12-18T23:10:22.670Z,69.73
2022-12-18T23:15:27.577Z,70.34
2022-12-18T23:20:27.877Z,70.28
2022-12-18T23:25:26.727Z,70.04
2022-12-18T23:30:25.463Z,70.25
2022-12-18T23:35:24.554Z,69.73
2022-12-18T23:40:23.363Z,69.25
2022-12-18T23:45:22.163Z,69.55
2022-12-18T23:50:22.106Z,69.58
2022-12-18T23:55:27.904Z,69.77
